sensor_id;sensor_type;location;lat;lon;timestamp;P1;durP1;ratioP1;P2;durP2;ratioP2
20908;SDS011;10614;53.198;6.570;2023-06-10T00:00:53;9.80;;;6.07;;
20908;SDS011;10614;53.198;6.570;2023-06-10T00:02:56;10.70;;;5.55;;
20908;SDS011;10614;53.198;6.570;2023-06-10T00:04:57;9.43;;;5.78;;
20908;SDS011;10614;53.198;6.570;2023-06-10T00:06:59;7.85;;;5.40;;
20908;SDS011;10614;53.198;6.570;2023-06-10T00:09:02;9.38;;;5.43;;
20908;SDS011;10614;53.198;6.570;2023-06-10T00:11:05;11.13;;;6.65;;
20908;SDS011;10614;53.198;6.570;2023-06-10T00:13:09;10.23;;;6.32;;
20908;SDS011;10614;53.198;6.570;2023-06-10T00:15:11;10.18;;;6.28;;
20908;SDS011;10614;53.198;6.570;2023-06-10T00:17:13;11.73;;;6.53;;
20908;SDS011;10614;53.198;6.570;2023-06-10T00:19:15;10.93;;;6.85;;
20908;SDS011;10614;53.198;6.570;2023-06-10T00:21:18;9.63;;;6.50;;
20908;SDS011;10614;53.198;6.570;2023-06-10T00:23:21;9.02;;;6.40;;
20908;SDS011;10614;53.198;6.570;2023-06-10T00:25:24;14.70;;;6.43;;
20908;SDS011;10614;53.198;6.570;2023-06-10T00:27:27;8.80;;;6.18;;
20908;SDS011;10614;53.198;6.570;2023-06-10T00:29:36;11.60;;;6.55;;
20908;SDS011;10614;53.198;6.570;2023-06-10T00:31:39;9.07;;;6.05;;
20908;SDS011;10614;53.198;6.570;2023-06-10T00:33:41;8.73;;;5.72;;
20908;SDS011;10614;53.198;6.570;2023-06-10T00:35:43;11.13;;;6.35;;
20908;SDS011;10614;53.198;6.570;2023-06-10T00:37:44;9.63;;;6.13;;
20908;SDS011;10614;53.198;6.570;2023-06-10T00:39:46;9.60;;;5.80;;
20908;SDS011;10614;53.198;6.570;2023-06-10T00:41:48;11.15;;;6.53;;
20908;SDS011;10614;53.198;6.570;2023-06-10T00:43:50;10.95;;;6.45;;
20908;SDS011;10614;53.198;6.570;2023-06-10T00:45:53;10.95;;;6.50;;
20908;SDS011;10614;53.198;6.570;2023-06-10T00:47:56;12.30;;;6.10;;
20908;SDS011;10614;53.198;6.570;2023-06-10T00:49:57;10.43;;;6.50;;
20908;SDS011;10614;53.198;6.570;2023-06-10T00:51:59;11.15;;;6.38;;
20908;SDS011;10614;53.198;6.570;2023-06-10T00:54:02;8.55;;;6.20;;
20908;SDS011;10614;53.198;6.570;2023-06-10T00:56:04;8.52;;;6.10;;
20908;SDS011;10614;53.198;6.570;2023-06-10T00:58:08;10.10;;;5.93;;
20908;SDS011;10614;53.198;6.570;2023-06-10T01:00:11;8.52;;;5.47;;
20908;SDS011;10614;53.198;6.570;2023-06-10T01:02:15;10.13;;;5.43;;
20908;SDS011;10614;53.198;6.570;2023-06-10T01:04:17;7.85;;;5.05;;
20908;SDS011;10614;53.198;6.570;2023-06-10T01:06:22;12.70;;;5.93;;
20908;SDS011;10614;53.198;6.570;2023-06-10T01:08:35;8.98;;;5.20;;
20908;SDS011;10614;53.198;6.570;2023-06-10T01:10:47;9.40;;;5.38;;
20908;SDS011;10614;53.198;6.570;2023-06-10T01:12:55;9.95;;;4.93;;
20908;SDS011;10614;53.198;6.570;2023-06-10T01:15:02;8.90;;;5.00;;
20908;SDS011;10614;53.198;6.570;2023-06-10T01:17:06;9.20;;;5.18;;
20908;SDS011;10614;53.198;6.570;2023-06-10T01:19:13;8.27;;;5.20;;
20908;SDS011;10614;53.198;6.570;2023-06-10T01:21:21;8.75;;;5.38;;
20908;SDS011;10614;53.198;6.570;2023-06-10T01:23:24;10.35;;;5.45;;
20908;SDS011;10614;53.198;6.570;2023-06-10T01:25:27;12.93;;;5.57;;
20908;SDS011;10614;53.198;6.570;2023-06-10T01:27:34;9.75;;;5.38;;
20908;SDS011;10614;53.198;6.570;2023-06-10T01:29:41;11.35;;;5.38;;
20908;SDS011;10614;53.198;6.570;2023-06-10T01:31:48;8.52;;;5.13;;
20908;SDS011;10614;53.198;6.570;2023-06-10T01:33:53;9.32;;;4.80;;
20908;SDS011;10614;53.198;6.570;2023-06-10T01:35:55;9.63;;;5.13;;
20908;SDS011;10614;53.198;6.570;2023-06-10T01:38:00;8.73;;;4.88;;
20908;SDS011;10614;53.198;6.570;2023-06-10T01:42:06;8.25;;;4.75;;
20908;SDS011;10614;53.198;6.570;2023-06-10T01:44:10;10.70;;;5.03;;
20908;SDS011;10614;53.198;6.570;2023-06-10T01:46:12;8.13;;;4.53;;
20908;SDS011;10614;53.198;6.570;2023-06-10T01:48:14;7.32;;;4.80;;
20908;SDS011;10614;53.198;6.570;2023-06-10T01:50:15;7.32;;;4.35;;
20908;SDS011;10614;53.198;6.570;2023-06-10T01:52:19;7.25;;;4.55;;
20908;SDS011;10614;53.198;6.570;2023-06-10T01:54:22;10.43;;;4.78;;
20908;SDS011;10614;53.198;6.570;2023-06-10T01:56:24;8.50;;;4.40;;
20908;SDS011;10614;53.198;6.570;2023-06-10T01:58:26;8.43;;;4.68;;
20908;SDS011;10614;53.198;6.570;2023-06-10T02:00:28;9.07;;;5.15;;
20908;SDS011;10614;53.198;6.570;2023-06-10T02:02:30;7.35;;;4.78;;
20908;SDS011;10614;53.198;6.570;2023-06-10T02:04:32;7.60;;;4.50;;
20908;SDS011;10614;53.198;6.570;2023-06-10T02:06:34;9.10;;;4.70;;
20908;SDS011;10614;53.198;6.570;2023-06-10T02:08:35;8.77;;;4.78;;
20908;SDS011;10614;53.198;6.570;2023-06-10T02:10:39;7.15;;;4.43;;
20908;SDS011;10614;53.198;6.570;2023-06-10T02:12:40;8.13;;;4.97;;
20908;SDS011;10614;53.198;6.570;2023-06-10T02:14:42;9.85;;;5.20;;
20908;SDS011;10614;53.198;6.570;2023-06-10T02:16:44;8.23;;;4.60;;
20908;SDS011;10614;53.198;6.570;2023-06-10T02:18:47;8.45;;;4.50;;
20908;SDS011;10614;53.198;6.570;2023-06-10T02:20:49;8.73;;;4.70;;
20908;SDS011;10614;53.198;6.570;2023-06-10T02:22:50;9.48;;;4.47;;
20908;SDS011;10614;53.198;6.570;2023-06-10T02:24:52;6.88;;;4.20;;
20908;SDS011;10614;53.198;6.570;2023-06-10T02:26:56;7.53;;;4.40;;
20908;SDS011;10614;53.198;6.570;2023-06-10T02:29:00;8.45;;;4.93;;
20908;SDS011;10614;53.198;6.570;2023-06-10T02:31:04;8.18;;;4.68;;
20908;SDS011;10614;53.198;6.570;2023-06-10T02:33:07;6.63;;;4.50;;
20908;SDS011;10614;53.198;6.570;2023-06-10T02:35:11;10.38;;;4.60;;
20908;SDS011;10614;53.198;6.570;2023-06-10T02:37:13;8.40;;;4.38;;
20908;SDS011;10614;53.198;6.570;2023-06-10T02:39:15;8.32;;;4.65;;
20908;SDS011;10614;53.198;6.570;2023-06-10T02:41:21;6.93;;;4.20;;
20908;SDS011;10614;53.198;6.570;2023-06-10T02:43:28;7.30;;;4.40;;
20908;SDS011;10614;53.198;6.570;2023-06-10T02:45:30;9.52;;;4.78;;
20908;SDS011;10614;53.198;6.570;2023-06-10T02:47:38;9.95;;;4.20;;
20908;SDS011;10614;53.198;6.570;2023-06-10T02:49:41;9.55;;;4.50;;
20908;SDS011;10614;53.198;6.570;2023-06-10T02:51:44;6.43;;;4.40;;
20908;SDS011;10614;53.198;6.570;2023-06-10T02:53:52;10.38;;;4.57;;
20908;SDS011;10614;53.198;6.570;2023-06-10T02:55:56;8.68;;;4.43;;
20908;SDS011;10614;53.198;6.570;2023-06-10T02:58:04;8.57;;;4.63;;
20908;SDS011;10614;53.198;6.570;2023-06-10T03:00:10;10.48;;;4.43;;
20908;SDS011;10614;53.198;6.570;2023-06-10T03:02:26;10.15;;;4.55;;
20908;SDS011;10614;53.198;6.570;2023-06-10T03:04:33;7.38;;;4.55;;
20908;SDS011;10614;53.198;6.570;2023-06-10T03:06:38;7.68;;;4.47;;
20908;SDS011;10614;53.198;6.570;2023-06-10T03:08:41;9.20;;;4.82;;
20908;SDS011;10614;53.198;6.570;2023-06-10T03:10:44;7.82;;;4.30;;
20908;SDS011;10614;53.198;6.570;2023-06-10T03:12:50;7.15;;;4.35;;
20908;SDS011;10614;53.198;6.570;2023-06-10T03:14:53;14.25;;;5.07;;
20908;SDS011;10614;53.198;6.570;2023-06-10T03:19:03;10.57;;;5.00;;
20908;SDS011;10614;53.198;6.570;2023-06-10T03:21:07;10.68;;;5.05;;
20908;SDS011;10614;53.198;6.570;2023-06-10T03:23:10;9.55;;;4.65;;
20908;SDS011;10614;53.198;6.570;2023-06-10T03:25:12;9.85;;;5.10;;
20908;SDS011;10614;53.198;6.570;2023-06-10T03:27:15;11.35;;;4.82;;
20908;SDS011;10614;53.198;6.570;2023-06-10T03:29:16;9.00;;;5.00;;
20908;SDS011;10614;53.198;6.570;2023-06-10T03:31:18;10.95;;;5.18;;
20908;SDS011;10614;53.198;6.570;2023-06-10T03:33:24;10.07;;;5.20;;
20908;SDS011;10614;53.198;6.570;2023-06-10T03:35:26;9.55;;;5.18;;
20908;SDS011;10614;53.198;6.570;2023-06-10T03:37:28;13.63;;;5.85;;
20908;SDS011;10614;53.198;6.570;2023-06-10T03:39:30;10.18;;;4.93;;
20908;SDS011;10614;53.198;6.570;2023-06-10T03:41:32;11.38;;;5.13;;
20908;SDS011;10614;53.198;6.570;2023-06-10T03:43:33;12.02;;;6.10;;
20908;SDS011;10614;53.198;6.570;2023-06-10T03:45:35;11.82;;;5.03;;
20908;SDS011;10614;53.198;6.570;2023-06-10T03:47:38;10.65;;;5.13;;
20908;SDS011;10614;53.198;6.570;2023-06-10T03:49:42;11.43;;;5.70;;
20908;SDS011;10614;53.198;6.570;2023-06-10T03:51:44;12.00;;;6.20;;
20908;SDS011;10614;53.198;6.570;2023-06-10T03:53:45;10.55;;;4.82;;
20908;SDS011;10614;53.198;6.570;2023-06-10T03:55:46;13.20;;;5.10;;
20908;SDS011;10614;53.198;6.570;2023-06-10T03:57:49;10.40;;;5.10;;
20908;SDS011;10614;53.198;6.570;2023-06-10T03:59:51;13.18;;;6.28;;
20908;SDS011;10614;53.198;6.570;2023-06-10T04:01:53;11.18;;;5.72;;
20908;SDS011;10614;53.198;6.570;2023-06-10T04:03:56;11.05;;;5.68;;
20908;SDS011;10614;53.198;6.570;2023-06-10T04:06:03;10.25;;;5.32;;
20908;SDS011;10614;53.198;6.570;2023-06-10T04:08:05;11.40;;;5.70;;
20908;SDS011;10614;53.198;6.570;2023-06-10T04:10:07;14.43;;;6.30;;
20908;SDS011;10614;53.198;6.570;2023-06-10T04:12:10;11.45;;;5.95;;
20908;SDS011;10614;53.198;6.570;2023-06-10T04:14:12;11.77;;;6.40;;
20908;SDS011;10614;53.198;6.570;2023-06-10T04:16:14;12.60;;;5.63;;
20908;SDS011;10614;53.198;6.570;2023-06-10T04:18:16;10.77;;;6.45;;
20908;SDS011;10614;53.198;6.570;2023-06-10T04:20:18;10.48;;;6.38;;
20908;SDS011;10614;53.198;6.570;2023-06-10T04:22:21;13.00;;;6.55;;
20908;SDS011;10614;53.198;6.570;2023-06-10T04:24:24;12.93;;;6.55;;
20908;SDS011;10614;53.198;6.570;2023-06-10T04:26:27;14.63;;;6.78;;
20908;SDS011;10614;53.198;6.570;2023-06-10T04:28:29;14.82;;;6.53;;
20908;SDS011;10614;53.198;6.570;2023-06-10T04:30:30;14.05;;;6.55;;
20908;SDS011;10614;53.198;6.570;2023-06-10T04:32:32;14.35;;;5.85;;
20908;SDS011;10614;53.198;6.570;2023-06-10T04:34:37;13.60;;;6.00;;
20908;SDS011;10614;53.198;6.570;2023-06-10T04:36:40;12.82;;;5.88;;
20908;SDS011;10614;53.198;6.570;2023-06-10T04:38:44;11.70;;;6.10;;
20908;SDS011;10614;53.198;6.570;2023-06-10T04:40:46;9.23;;;5.25;;
20908;SDS011;10614;53.198;6.570;2023-06-10T04:42:48;12.20;;;6.38;;
20908;SDS011;10614;53.198;6.570;2023-06-10T04:44:50;12.07;;;6.70;;
20908;SDS011;10614;53.198;6.570;2023-06-10T04:46:52;10.98;;;5.93;;
20908;SDS011;10614;53.198;6.570;2023-06-10T04:48:54;13.88;;;6.07;;
20908;SDS011;10614;53.198;6.570;2023-06-10T04:50:58;12.50;;;6.00;;
20908;SDS011;10614;53.198;6.570;2023-06-10T04:53:00;13.50;;;6.50;;
20908;SDS011;10614;53.198;6.570;2023-06-10T04:55:04;12.93;;;6.03;;
20908;SDS011;10614;53.198;6.570;2023-06-10T04:57:06;12.40;;;5.63;;
20908;SDS011;10614;53.198;6.570;2023-06-10T04:59:08;10.23;;;5.55;;
20908;SDS011;10614;53.198;6.570;2023-06-10T05:01:10;13.40;;;7.43;;
20908;SDS011;10614;53.198;6.570;2023-06-10T05:03:12;10.10;;;5.40;;
20908;SDS011;10614;53.198;6.570;2023-06-10T05:05:14;12.07;;;5.68;;
20908;SDS011;10614;53.198;6.570;2023-06-10T05:07:16;12.18;;;5.70;;
20908;SDS011;10614;53.198;6.570;2023-06-10T05:09:18;14.00;;;6.72;;
20908;SDS011;10614;53.198;6.570;2023-06-10T05:11:21;10.55;;;5.68;;
20908;SDS011;10614;53.198;6.570;2023-06-10T05:13:23;12.93;;;6.47;;
20908;SDS011;10614;53.198;6.570;2023-06-10T05:15:25;16.00;;;6.88;;
20908;SDS011;10614;53.198;6.570;2023-06-10T05:17:27;12.40;;;6.07;;
20908;SDS011;10614;53.198;6.570;2023-06-10T05:19:29;14.95;;;6.40;;
20908;SDS011;10614;53.198;6.570;2023-06-10T05:21:31;11.68;;;6.47;;
20908;SDS011;10614;53.198;6.570;2023-06-10T05:23:34;15.85;;;7.10;;
20908;SDS011;10614;53.198;6.570;2023-06-10T05:25:36;13.70;;;7.05;;
20908;SDS011;10614;53.198;6.570;2023-06-10T05:27:40;11.65;;;6.78;;
20908;SDS011;10614;53.198;6.570;2023-06-10T05:29:42;12.60;;;6.53;;
20908;SDS011;10614;53.198;6.570;2023-06-10T05:31:46;12.68;;;6.47;;
20908;SDS011;10614;53.198;6.570;2023-06-10T05:33:48;13.88;;;6.88;;
20908;SDS011;10614;53.198;6.570;2023-06-10T05:35:50;11.10;;;6.68;;
20908;SDS011;10614;53.198;6.570;2023-06-10T05:37:52;13.38;;;7.07;;
20908;SDS011;10614;53.198;6.570;2023-06-10T05:39:53;14.23;;;7.63;;
20908;SDS011;10614;53.198;6.570;2023-06-10T05:41:55;11.65;;;6.97;;
20908;SDS011;10614;53.198;6.570;2023-06-10T05:44:00;14.63;;;7.38;;
20908;SDS011;10614;53.198;6.570;2023-06-10T05:46:03;12.55;;;6.65;;
20908;SDS011;10614;53.198;6.570;2023-06-10T05:48:06;15.73;;;9.60;;
20908;SDS011;10614;53.198;6.570;2023-06-10T05:50:08;10.98;;;7.22;;
20908;SDS011;10614;53.198;6.570;2023-06-10T05:52:10;11.73;;;6.30;;
20908;SDS011;10614;53.198;6.570;2023-06-10T05:54:12;12.73;;;6.18;;
20908;SDS011;10614;53.198;6.570;2023-06-10T05:56:14;11.75;;;6.03;;
20908;SDS011;10614;53.198;6.570;2023-06-10T05:58:16;13.02;;;6.30;;
20908;SDS011;10614;53.198;6.570;2023-06-10T06:00:21;15.00;;;7.80;;
20908;SDS011;10614;53.198;6.570;2023-06-10T06:02:25;14.43;;;7.28;;
20908;SDS011;10614;53.198;6.570;2023-06-10T06:04:28;13.30;;;7.35;;
20908;SDS011;10614;53.198;6.570;2023-06-10T06:06:32;11.82;;;6.95;;
20908;SDS011;10614;53.198;6.570;2023-06-10T06:08:34;11.25;;;6.70;;
20908;SDS011;10614;53.198;6.570;2023-06-10T06:10:37;11.00;;;5.93;;
20908;SDS011;10614;53.198;6.570;2023-06-10T06:12:39;14.20;;;6.65;;
20908;SDS011;10614;53.198;6.570;2023-06-10T06:14:41;13.85;;;6.65;;
20908;SDS011;10614;53.198;6.570;2023-06-10T06:16:46;11.57;;;6.40;;
20908;SDS011;10614;53.198;6.570;2023-06-10T06:18:48;12.00;;;6.90;;
20908;SDS011;10614;53.198;6.570;2023-06-10T06:20:50;12.80;;;7.07;;
20908;SDS011;10614;53.198;6.570;2023-06-10T06:22:51;9.18;;;6.25;;
20908;SDS011;10614;53.198;6.570;2023-06-10T06:24:53;14.80;;;7.03;;
20908;SDS011;10614;53.198;6.570;2023-06-10T06:26:55;10.45;;;5.93;;
20908;SDS011;10614;53.198;6.570;2023-06-10T06:28:57;10.70;;;6.85;;
20908;SDS011;10614;53.198;6.570;2023-06-10T06:30:59;11.80;;;6.35;;
20908;SDS011;10614;53.198;6.570;2023-06-10T06:33:03;12.52;;;6.20;;
20908;SDS011;10614;53.198;6.570;2023-06-10T06:35:05;9.65;;;5.68;;
20908;SDS011;10614;53.198;6.570;2023-06-10T06:37:09;10.55;;;6.13;;
20908;SDS011;10614;53.198;6.570;2023-06-10T06:39:11;13.60;;;7.38;;
20908;SDS011;10614;53.198;6.570;2023-06-10T06:41:13;15.05;;;6.97;;
20908;SDS011;10614;53.198;6.570;2023-06-10T06:43:15;11.73;;;6.28;;
20908;SDS011;10614;53.198;6.570;2023-06-10T06:45:19;12.15;;;6.20;;
20908;SDS011;10614;53.198;6.570;2023-06-10T06:47:22;10.52;;;6.32;;
20908;SDS011;10614;53.198;6.570;2023-06-10T06:49:28;12.00;;;7.05;;
20908;SDS011;10614;53.198;6.570;2023-06-10T06:51:31;12.05;;;6.70;;
20908;SDS011;10614;53.198;6.570;2023-06-10T06:53:33;10.45;;;5.85;;
20908;SDS011;10614;53.198;6.570;2023-06-10T06:55:36;11.65;;;6.53;;
20908;SDS011;10614;53.198;6.570;2023-06-10T06:57:38;16.27;;;7.32;;
20908;SDS011;10614;53.198;6.570;2023-06-10T06:59:40;11.10;;;6.10;;
20908;SDS011;10614;53.198;6.570;2023-06-10T07:01:42;10.75;;;6.07;;
20908;SDS011;10614;53.198;6.570;2023-06-10T07:03:44;14.05;;;6.68;;
20908;SDS011;10614;53.198;6.570;2023-06-10T07:05:47;12.63;;;6.25;;
20908;SDS011;10614;53.198;6.570;2023-06-10T07:07:49;10.85;;;6.05;;
20908;SDS011;10614;53.198;6.570;2023-06-10T07:09:55;10.40;;;6.07;;
20908;SDS011;10614;53.198;6.570;2023-06-10T07:11:56;12.90;;;5.68;;
20908;SDS011;10614;53.198;6.570;2023-06-10T07:13:58;13.20;;;6.03;;
20908;SDS011;10614;53.198;6.570;2023-06-10T07:16:00;8.93;;;6.18;;
20908;SDS011;10614;53.198;6.570;2023-06-10T07:18:03;11.13;;;5.78;;
20908;SDS011;10614;53.198;6.570;2023-06-10T07:20:05;13.82;;;6.45;;
20908;SDS011;10614;53.198;6.570;2023-06-10T07:22:10;11.20;;;6.47;;
20908;SDS011;10614;53.198;6.570;2023-06-10T07:24:12;9.68;;;5.28;;
20908;SDS011;10614;53.198;6.570;2023-06-10T07:26:14;11.13;;;5.93;;
20908;SDS011;10614;53.198;6.570;2023-06-10T07:28:17;8.57;;;5.57;;
20908;SDS011;10614;53.198;6.570;2023-06-10T07:30:18;9.75;;;6.22;;
20908;SDS011;10614;53.198;6.570;2023-06-10T07:32:20;10.90;;;5.80;;
20908;SDS011;10614;53.198;6.570;2023-06-10T07:34:24;9.82;;;5.05;;
20908;SDS011;10614;53.198;6.570;2023-06-10T07:36:30;14.40;;;5.55;;
20908;SDS011;10614;53.198;6.570;2023-06-10T07:38:36;10.20;;;6.00;;
20908;SDS011;10614;53.198;6.570;2023-06-10T07:40:38;9.50;;;5.18;;
20908;SDS011;10614;53.198;6.570;2023-06-10T07:42:40;9.25;;;5.50;;
20908;SDS011;10614;53.198;6.570;2023-06-10T07:44:43;11.30;;;5.65;;
20908;SDS011;10614;53.198;6.570;2023-06-10T07:46:45;11.50;;;5.50;;
20908;SDS011;10614;53.198;6.570;2023-06-10T07:48:47;13.15;;;5.45;;
20908;SDS011;10614;53.198;6.570;2023-06-10T07:50:49;10.40;;;5.78;;
20908;SDS011;10614;53.198;6.570;2023-06-10T07:52:51;9.80;;;5.60;;
20908;SDS011;10614;53.198;6.570;2023-06-10T07:54:55;9.98;;;5.60;;
20908;SDS011;10614;53.198;6.570;2023-06-10T07:56:57;11.57;;;5.80;;
20908;SDS011;10614;53.198;6.570;2023-06-10T07:58:58;11.27;;;6.22;;
20908;SDS011;10614;53.198;6.570;2023-06-10T08:01:01;12.85;;;6.07;;
20908;SDS011;10614;53.198;6.570;2023-06-10T08:03:02;9.00;;;5.00;;
20908;SDS011;10614;53.198;6.570;2023-06-10T08:05:04;7.45;;;4.88;;
20908;SDS011;10614;53.198;6.570;2023-06-10T08:07:07;9.30;;;5.45;;
20908;SDS011;10614;53.198;6.570;2023-06-10T08:09:09;8.63;;;4.68;;
20908;SDS011;10614;53.198;6.570;2023-06-10T08:11:13;7.53;;;4.38;;
20908;SDS011;10614;53.198;6.570;2023-06-10T08:13:16;8.52;;;4.85;;
20908;SDS011;10614;53.198;6.570;2023-06-10T08:15:18;8.50;;;4.95;;
20908;SDS011;10614;53.198;6.570;2023-06-10T08:17:20;6.63;;;4.07;;
20908;SDS011;10614;53.198;6.570;2023-06-10T08:19:22;7.30;;;4.03;;
20908;SDS011;10614;53.198;6.570;2023-06-10T08:21:24;8.13;;;4.15;;
20908;SDS011;10614;53.198;6.570;2023-06-10T08:23:25;9.32;;;4.90;;
20908;SDS011;10614;53.198;6.570;2023-06-10T08:25:28;10.02;;;4.72;;
20908;SDS011;10614;53.198;6.570;2023-06-10T08:27:34;7.43;;;4.55;;
20908;SDS011;10614;53.198;6.570;2023-06-10T08:29:38;10.80;;;4.85;;
20908;SDS011;10614;53.198;6.570;2023-06-10T08:31:47;10.35;;;5.10;;
20908;SDS011;10614;53.198;6.570;2023-06-10T08:33:50;7.80;;;4.50;;
20908;SDS011;10614;53.198;6.570;2023-06-10T08:35:52;9.38;;;4.72;;
20908;SDS011;10614;53.198;6.570;2023-06-10T08:37:54;6.47;;;3.78;;
20908;SDS011;10614;53.198;6.570;2023-06-10T08:39:57;6.15;;;4.05;;
20908;SDS011;10614;53.198;6.570;2023-06-10T08:42:00;6.28;;;3.88;;
20908;SDS011;10614;53.198;6.570;2023-06-10T08:44:16;8.55;;;3.83;;
20908;SDS011;10614;53.198;6.570;2023-06-10T08:46:23;10.40;;;4.60;;
20908;SDS011;10614;53.198;6.570;2023-06-10T08:48:26;11.73;;;5.53;;
20908;SDS011;10614;53.198;6.570;2023-06-10T08:50:30;9.38;;;4.80;;
20908;SDS011;10614;53.198;6.570;2023-06-10T08:52:34;7.30;;;4.15;;
20908;SDS011;10614;53.198;6.570;2023-06-10T08:54:46;6.43;;;4.00;;
20908;SDS011;10614;53.198;6.570;2023-06-10T08:56:50;8.70;;;4.05;;
20908;SDS011;10614;53.198;6.570;2023-06-10T08:58:55;6.45;;;3.72;;
20908;SDS011;10614;53.198;6.570;2023-06-10T09:01:02;8.32;;;4.57;;
20908;SDS011;10614;53.198;6.570;2023-06-10T09:03:04;7.57;;;4.03;;
20908;SDS011;10614;53.198;6.570;2023-06-10T09:05:08;12.02;;;4.50;;
20908;SDS011;10614;53.198;6.570;2023-06-10T09:07:11;8.00;;;4.07;;
20908;SDS011;10614;53.198;6.570;2023-06-10T09:09:15;8.90;;;4.38;;
20908;SDS011;10614;53.198;6.570;2023-06-10T09:11:17;7.88;;;4.18;;
20908;SDS011;10614;53.198;6.570;2023-06-10T09:13:20;7.35;;;4.10;;
20908;SDS011;10614;53.198;6.570;2023-06-10T09:15:22;12.30;;;4.72;;
20908;SDS011;10614;53.198;6.570;2023-06-10T09:17:25;7.93;;;4.00;;
20908;SDS011;10614;53.198;6.570;2023-06-10T09:19:28;8.82;;;4.78;;
20908;SDS011;10614;53.198;6.570;2023-06-10T09:21:30;9.02;;;4.60;;
20908;SDS011;10614;53.198;6.570;2023-06-10T09:23:32;8.05;;;4.32;;
20908;SDS011;10614;53.198;6.570;2023-06-10T09:25:35;8.98;;;4.40;;
20908;SDS011;10614;53.198;6.570;2023-06-10T09:27:43;8.23;;;4.10;;
20908;SDS011;10614;53.198;6.570;2023-06-10T09:29:51;6.47;;;4.10;;
20908;SDS011;10614;53.198;6.570;2023-06-10T09:31:54;8.68;;;4.30;;
20908;SDS011;10614;53.198;6.570;2023-06-10T09:34:05;8.57;;;3.97;;
20908;SDS011;10614;53.198;6.570;2023-06-10T09:36:08;6.43;;;3.80;;
20908;SDS011;10614;53.198;6.570;2023-06-10T09:38:10;6.20;;;3.78;;
20908;SDS011;10614;53.198;6.570;2023-06-10T09:40:12;6.47;;;3.90;;
20908;SDS011;10614;53.198;6.570;2023-06-10T09:42:17;11.82;;;4.63;;
20908;SDS011;10614;53.198;6.570;2023-06-10T09:44:20;7.43;;;4.30;;
20908;SDS011;10614;53.198;6.570;2023-06-10T09:46:25;6.47;;;3.80;;
20908;SDS011;10614;53.198;6.570;2023-06-10T09:48:39;8.45;;;4.15;;
20908;SDS011;10614;53.198;6.570;2023-06-10T09:50:44;7.90;;;4.30;;
20908;SDS011;10614;53.198;6.570;2023-06-10T09:52:46;7.57;;;4.28;;
20908;SDS011;10614;53.198;6.570;2023-06-10T09:54:49;7.53;;;4.25;;
20908;SDS011;10614;53.198;6.570;2023-06-10T09:56:52;6.65;;;3.60;;
20908;SDS011;10614;53.198;6.570;2023-06-10T09:58:54;8.73;;;4.43;;
20908;SDS011;10614;53.198;6.570;2023-06-10T10:00:56;8.50;;;4.03;;
20908;SDS011;10614;53.198;6.570;2023-06-10T10:02:58;6.53;;;3.90;;
20908;SDS011;10614;53.198;6.570;2023-06-10T10:05:02;6.93;;;4.05;;
20908;SDS011;10614;53.198;6.570;2023-06-10T10:07:05;6.93;;;4.03;;
20908;SDS011;10614;53.198;6.570;2023-06-10T10:09:08;6.70;;;4.10;;
20908;SDS011;10614;53.198;6.570;2023-06-10T10:11:12;7.57;;;3.92;;
20908;SDS011;10614;53.198;6.570;2023-06-10T10:13:15;6.55;;;3.50;;
20908;SDS011;10614;53.198;6.570;2023-06-10T10:15:18;6.63;;;3.42;;
20908;SDS011;10614;53.198;6.570;2023-06-10T10:19:27;7.97;;;3.92;;
20908;SDS011;10614;53.198;6.570;2023-06-10T10:21:32;6.70;;;3.80;;
20908;SDS011;10614;53.198;6.570;2023-06-10T10:23:48;8.93;;;4.05;;
20908;SDS011;10614;53.198;6.570;2023-06-10T10:25:57;7.10;;;3.85;;
20908;SDS011;10614;53.198;6.570;2023-06-10T10:28:06;6.30;;;3.67;;
20908;SDS011;10614;53.198;6.570;2023-06-10T10:30:11;7.63;;;4.05;;
20908;SDS011;10614;53.198;6.570;2023-06-10T10:32:16;9.35;;;3.97;;
20908;SDS011;10614;53.198;6.570;2023-06-10T10:34:21;7.82;;;4.07;;
20908;SDS011;10614;53.198;6.570;2023-06-10T10:36:31;6.80;;;4.03;;
20908;SDS011;10614;53.198;6.570;2023-06-10T10:38:34;6.82;;;3.80;;
20908;SDS011;10614;53.198;6.570;2023-06-10T10:40:41;6.40;;;3.90;;
20908;SDS011;10614;53.198;6.570;2023-06-10T10:42:45;6.28;;;3.92;;
20908;SDS011;10614;53.198;6.570;2023-06-10T10:44:48;8.77;;;3.80;;
20908;SDS011;10614;53.198;6.570;2023-06-10T10:46:52;8.57;;;4.15;;
20908;SDS011;10614;53.198;6.570;2023-06-10T10:48:55;6.03;;;3.90;;
20908;SDS011;10614;53.198;6.570;2023-06-10T10:50:57;6.43;;;3.90;;
20908;SDS011;10614;53.198;6.570;2023-06-10T10:53:00;7.28;;;3.92;;
20908;SDS011;10614;53.198;6.570;2023-06-10T10:55:05;5.30;;;3.78;;
20908;SDS011;10614;53.198;6.570;2023-06-10T10:57:16;6.70;;;3.78;;
20908;SDS011;10614;53.198;6.570;2023-06-10T10:59:19;9.05;;;3.80;;
20908;SDS011;10614;53.198;6.570;2023-06-10T11:01:21;6.43;;;4.25;;
20908;SDS011;10614;53.198;6.570;2023-06-10T11:03:22;7.85;;;4.22;;
20908;SDS011;10614;53.198;6.570;2023-06-10T11:05:36;7.43;;;4.40;;
20908;SDS011;10614;53.198;6.570;2023-06-10T11:07:40;6.20;;;3.78;;
20908;SDS011;10614;53.198;6.570;2023-06-10T11:09:57;7.35;;;4.65;;
20908;SDS011;10614;53.198;6.570;2023-06-10T11:12:00;6.30;;;4.20;;
20908;SDS011;10614;53.198;6.570;2023-06-10T11:14:07;5.55;;;3.80;;
20908;SDS011;10614;53.198;6.570;2023-06-10T11:16:14;7.30;;;4.18;;
20908;SDS011;10614;53.198;6.570;2023-06-10T11:18:22;9.45;;;4.50;;
20908;SDS011;10614;53.198;6.570;2023-06-10T11:22:59;7.72;;;4.57;;
20908;SDS011;10614;53.198;6.570;2023-06-10T11:25:13;10.27;;;4.80;;
20908;SDS011;10614;53.198;6.570;2023-06-10T11:27:16;6.63;;;4.10;;
20908;SDS011;10614;53.198;6.570;2023-06-10T11:29:21;6.38;;;3.70;;
20908;SDS011;10614;53.198;6.570;2023-06-10T11:31:23;7.78;;;4.20;;
20908;SDS011;10614;53.198;6.570;2023-06-10T11:33:25;8.52;;;4.05;;
20908;SDS011;10614;53.198;6.570;2023-06-10T11:35:29;6.32;;;3.80;;
20908;SDS011;10614;53.198;6.570;2023-06-10T11:37:31;7.50;;;4.45;;
20908;SDS011;10614;53.198;6.570;2023-06-10T11:39:32;6.75;;;3.85;;
20908;SDS011;10614;53.198;6.570;2023-06-10T11:41:35;7.80;;;4.60;;
20908;SDS011;10614;53.198;6.570;2023-06-10T11:43:40;5.80;;;3.80;;
20908;SDS011;10614;53.198;6.570;2023-06-10T11:45:45;7.93;;;3.78;;
20908;SDS011;10614;53.198;6.570;2023-06-10T11:47:57;5.47;;;3.75;;
20908;SDS011;10614;53.198;6.570;2023-06-10T11:49:59;6.28;;;3.90;;
20908;SDS011;10614;53.198;6.570;2023-06-10T11:52:02;8.38;;;4.00;;
20908;SDS011;10614;53.198;6.570;2023-06-10T11:54:08;8.30;;;3.85;;
20908;SDS011;10614;53.198;6.570;2023-06-10T11:56:10;6.80;;;3.60;;
20908;SDS011;10614;53.198;6.570;2023-06-10T11:58:12;6.25;;;3.83;;
20908;SDS011;10614;53.198;6.570;2023-06-10T12:00:15;6.15;;;3.47;;
20908;SDS011;10614;53.198;6.570;2023-06-10T12:02:20;6.90;;;3.88;;
20908;SDS011;10614;53.198;6.570;2023-06-10T12:04:26;6.65;;;4.10;;
20908;SDS011;10614;53.198;6.570;2023-06-10T12:06:37;9.40;;;3.90;;
20908;SDS011;10614;53.198;6.570;2023-06-10T12:08:41;10.15;;;3.70;;
20908;SDS011;10614;53.198;6.570;2023-06-10T12:10:43;6.57;;;3.75;;
20908;SDS011;10614;53.198;6.570;2023-06-10T12:12:49;8.63;;;4.07;;
20908;SDS011;10614;53.198;6.570;2023-06-10T12:14:55;7.25;;;3.65;;
20908;SDS011;10614;53.198;6.570;2023-06-10T12:16:58;5.93;;;3.80;;
20908;SDS011;10614;53.198;6.570;2023-06-10T12:19:05;7.25;;;4.00;;
20908;SDS011;10614;53.198;6.570;2023-06-10T12:21:15;4.90;;;3.30;;
20908;SDS011;10614;53.198;6.570;2023-06-10T12:23:18;7.05;;;3.67;;
20908;SDS011;10614;53.198;6.570;2023-06-10T12:25:26;5.95;;;3.65;;
20908;SDS011;10614;53.198;6.570;2023-06-10T12:27:28;8.73;;;3.88;;